Time;durP1;ratioP1;P1;durP2;ratioP2;P2;SDS_P1;SDS_P2;PMS_P1;PMS_P2;Temp;Humidity;BMP_temperature;BMP_pressure;BME280_temperature;BME280_humidity;BME280_pressure;Samples;Min_cycle;Max_cycle;Signal;HPM_P1;HPM_P2
2024/01/21 00:01:26;;;;;;;48.50;28.67;;;-2.20;89.10;;;;;;5053688;28;20037;-64
2024/01/21 00:03:52;;;;;;;56.55;34.80;;;-2.20;88.90;;;;;;5053437;28;20035;-62
2024/01/21 00:06:18;;;;;;;41.60;25.85;;;-2.30;88.50;;;;;;5053612;28;20108;-60
2024/01/21 00:08:44;;;;;;;42.58;25.10;;;-2.30;89.30;;;;;;5053559;28;20082;-62
2024/01/21 00:11:09;;;;;;;46.75;26.95;;;-2.40;90.00;;;;;;5053399;28;20037;-62
2024/01/21 00:13:35;;;;;;;52.25;30.08;;;-2.40;88.70;;;;;;5053129;28;20021;-61
2024/01/21 00:16:01;;;;;;;49.75;28.98;;;-2.40;87.80;;;;;;5053267;28;20031;-62
2024/01/21 00:18:27;;;;;;;60.28;33.22;;;-2.50;87.70;;;;;;5053357;28;20055;-62
2024/01/21 00:20:52;;;;;;;54.75;31.92;;;-2.50;86.80;;;;;;5053171;28;20108;-63
2024/01/21 00:23:18;;;;;;;49.60;29.58;;;-2.60;86.30;;;;;;5053170;28;20025;-65
2024/01/21 00:25:44;;;;;;;72.95;40.45;;;-2.60;87.50;;;;;;5053195;28;20071;-63
2024/01/21 00:28:10;;;;;;;89.68;49.72;;;-2.70;88.00;;;;;;5052892;28;20104;-62
2024/01/21 00:30:35;;;;;;;62.72;36.28;;;-2.70;89.90;;;;;;5053083;28;20036;-64
2024/01/21 00:33:01;;;;;;;65.25;37.65;;;-2.80;90.50;;;;;;5053272;28;20490;-62
2024/01/21 00:35:27;;;;;;;61.80;35.55;;;-2.80;90.50;;;;;;5053235;28;20017;-62
2024/01/21 00:37:53;;;;;;;61.72;36.65;;;-2.80;90.20;;;;;;5053057;28;20045;-64
2024/01/21 00:40:19;;;;;;;61.60;36.27;;;-2.80;89.40;;;;;;5053334;28;20060;-65
2024/01/21 00:42:44;;;;;;;54.00;32.35;;;-2.80;88.60;;;;;;5052861;28;20095;-63
2024/01/21 00:45:10;;;;;;;68.53;38.85;;;-2.70;88.30;;;;;;5053064;28;20021;-65
2024/01/21 00:47:36;;;;;;;54.95;32.38;;;-2.70;86.10;;;;;;5052971;28;20063;-62
2024/01/21 00:50:03;;;;;;;63.13;35.20;;;-2.80;86.70;;;;;;5053029;28;20048;-63
2024/01/21 00:52:28;;;;;;;49.55;29.17;;;-2.80;86.30;;;;;;5053007;28;20021;-64
2024/01/21 00:54:54;;;;;;;48.55;28.15;;;-2.80;85.70;;;;;;5052824;28;20044;-64
2024/01/21 00:57:20;;;;;;;46.47;28.15;;;-2.90;87.00;;;;;;5052734;28;20032;-65
2024/01/21 00:59:46;;;;;;;45.10;27.40;;;-2.90;86.80;;;;;;5052867;28;20025;-62
2024/01/21 01:02:11;;;;;;;40.80;25.60;;;-2.90;86.60;;;;;;5052869;28;20058;-62
2024/01/21 01:04:37;;;;;;;43.08;24.90;;;-2.80;86.90;;;;;;5052832;28;20475;-64
2024/01/21 01:07:03;;;;;;;39.22;23.55;;;-2.80;87.60;;;;;;5052826;28;20021;-64
2024/01/21 01:09:29;;;;;;;44.90;24.48;;;-2.80;86.20;;;;;;5052659;28;20029;-60
2024/01/21 01:11:54;;;;;;;37.15;21.50;;;-2.80;86.30;;;;;;5054386;28;20021;-64
2024/01/21 01:14:20;;;;;;;35.28;22.85;;;-2.80;86.00;;;;;;5056704;28;20071;-62
2024/01/21 01:16:46;;;;;;;45.10;25.23;;;-2.80;85.40;;;;;;5056885;28;20029;-63
2024/01/21 01:19:11;;;;;;;38.20;25.02;;;-2.80;85.70;;;;;;5056678;28;20112;-64
2024/01/21 01:21:37;;;;;;;41.20;24.52;;;-2.80;86.20;;;;;;5056548;28;20032;-64
2024/01/21 01:24:03;;;;;;;35.83;22.43;;;-2.80;86.10;;;;;;5056539;28;20031;-62
2024/01/21 01:26:28;;;;;;;35.53;20.33;;;-2.70;87.10;;;;;;5056134;28;20475;-64
2024/01/21 01:28:54;;;;;;;31.50;18.83;;;-2.80;87.10;;;;;;5056243;28;20490;-63
2024/01/21 01:31:20;;;;;;;39.63;23.48;;;-2.70;88.20;;;;;;5056382;28;20096;-65
2024/01/21 01:33:46;;;;;;;40.15;23.27;;;-2.70;87.50;;;;;;5056268;28;20421;-64
2024/01/21 01:36:12;;;;;;;32.83;19.30;;;-2.70;87.00;;;;;;5056496;28;20025;-64
2024/01/21 01:38:38;;;;;;;28.67;18.70;;;-2.60;88.00;;;;;;5056264;28;20025;-65
2024/01/21 01:41:04;;;;;;;32.78;19.70;;;-2.60;88.30;;;;;;5055944;28;20036;-63
2024/01/21 01:43:30;;;;;;;33.92;23.00;;;-2.60;88.60;;;;;;5056104;28;20036;-63
2024/01/21 01:45:59;;;;;;;34.00;21.63;;;-2.50;87.20;;;;;;5056370;28;20379;-64
2024/01/21 01:48:25;;;;;;;34.47;22.27;;;-2.60;86.60;;;;;;5056217;28;20029;-62
2024/01/21 01:50:52;;;;;;;36.55;20.88;;;-2.60;86.80;;;;;;5055993;28;20505;-62
2024/01/21 01:53:18;;;;;;;34.55;21.35;;;-2.60;87.10;;;;;;5056178;28;20021;-63
2024/01/21 01:55:44;;;;;;;36.55;21.63;;;-2.60;87.60;;;;;;5055930;28;20021;-65
2024/01/21 01:58:15;;;;;;;39.22;23.63;;;-2.60;87.20;;;;;;5056166;28;20083;-64
2024/01/21 02:00:41;;;;;;;29.30;19.27;;;-2.60;87.40;;;;;;5055697;28;20028;-62
2024/01/21 02:03:08;;;;;;;26.42;17.65;;;-2.70;87.00;;;;;;5055963;28;20029;-64
2024/01/21 02:05:34;;;;;;;32.17;20.00;;;-2.70;86.90;;;;;;5055957;28;20049;-62
2024/01/21 02:08:00;;;;;;;27.75;18.63;;;-2.80;85.80;;;;;;5055971;28;20099;-64
2024/01/21 02:10:30;;;;;;;30.83;18.58;;;-2.80;85.80;;;;;;5055336;28;20479;-65
2024/01/21 02:12:56;;;;;;;45.47;27.42;;;-2.80;85.60;;;;;;5055578;28;20064;-64
2024/01/21 02:15:22;;;;;;;37.47;22.63;;;-2.90;83.60;;;;;;5055567;28;20116;-61
2024/01/21 02:17:48;;;;;;;34.25;22.45;;;-2.90;84.30;;;;;;5055511;28;20017;-63
2024/01/21 02:20:14;;;;;;;32.50;20.02;;;-3.10;84.40;;;;;;5055608;28;20036;-62
2024/01/21 02:22:41;;;;;;;47.55;26.27;;;-3.10;85.80;;;;;;5054989;28;20021;-61
2024/01/21 02:25:07;;;;;;;38.50;22.05;;;-3.10;85.00;;;;;;5055378;28;20021;-62
2024/01/21 02:27:34;;;;;;;40.13;24.58;;;-3.20;84.20;;;;;;5055222;28;20027;-60
2024/01/21 02:30:00;;;;;;;37.60;21.60;;;-3.20;84.30;;;;;;5054979;28;20098;-62
2024/01/21 02:32:26;;;;;;;33.13;21.23;;;-3.20;84.80;;;;;;5055226;28;20029;-63
2024/01/21 02:34:52;;;;;;;34.33;20.83;;;-3.20;84.50;;;;;;5055363;28;20478;-61
2024/01/21 02:37:18;;;;;;;32.40;20.60;;;-3.20;85.80;;;;;;5055118;28;20021;-63
2024/01/21 02:39:44;;;;;;;30.33;18.08;;;-3.10;86.00;;;;;;5055246;28;20052;-65
2024/01/21 02:42:10;;;;;;;32.37;20.50;;;-3.20;85.60;;;;;;5054897;28;20029;-64
2024/01/21 02:44:36;;;;;;;27.90;17.70;;;-3.10;84.80;;;;;;5055076;28;20079;-65
2024/01/21 02:47:02;;;;;;;26.63;17.10;;;-3.10;84.90;;;;;;5055055;28;20423;-62
2024/01/21 02:49:28;;;;;;;32.10;20.93;;;-3.20;84.70;;;;;;5055053;28;20025;-62
2024/01/21 02:51:58;;;;;;;24.33;16.83;;;-3.20;84.50;;;;;;5054959;28;20029;-61
2024/01/21 02:54:25;;;;;;;24.90;15.27;;;-3.30;86.00;;;;;;5055116;28;20162;-62
2024/01/21 02:56:51;;;;;;;27.98;17.02;;;-3.30;86.20;;;;;;5054970;28;20017;-64
2024/01/21 02:59:16;;;;;;;34.28;20.60;;;-3.30;87.10;;;;;;5054915;28;20029;-62
2024/01/21 03:01:42;;;;;;;38.60;23.47;;;-3.20;87.70;;;;;;5054695;28;20474;-62
2024/01/21 03:04:12;;;;;;;28.40;17.27;;;-3.30;88.20;;;;;;5054827;28;20540;-65
2024/01/21 03:06:38;;;;;;;29.53;17.77;;;-3.20;90.30;;;;;;5054533;28;20052;-65
2024/01/21 03:09:04;;;;;;;26.07;16.23;;;-3.20;91.10;;;;;;5054840;28;20363;-63
2024/01/21 03:11:32;;;;;;;25.20;14.85;;;-3.00;92.00;;;;;;5054502;28;20044;-63
2024/01/21 03:13:58;;;;;;;25.20;14.77;;;-3.00;92.90;;;;;;5054588;28;20051;-63
2024/01/21 03:16:24;;;;;;;36.38;22.17;;;-2.90;92.80;;;;;;5054509;28;20056;-64
2024/01/21 03:18:49;;;;;;;28.83;18.25;;;-2.80;92.30;;;;;;5054659;28;20025;-63
2024/01/21 03:21:15;;;;;;;27.33;16.52;;;-2.90;92.70;;;;;;5054066;28;20025;-63
2024/01/21 03:23:41;;;;;;;21.98;13.77;;;-2.90;93.60;;;;;;5054351;28;20032;-64
2024/01/21 03:26:07;;;;;;;21.30;13.05;;;-2.90;94.10;;;;;;5054281;28;20028;-61
2024/01/21 03:28:32;;;;;;;17.88;12.27;;;-2.80;94.30;;;;;;5053839;28;20053;-62
2024/01/21 03:30:58;;;;;;;19.48;11.50;;;-2.70;94.40;;;;;;5054250;28;20033;-65
2024/01/21 03:33:25;;;;;;;20.93;12.60;;;-2.70;94.40;;;;;;5053892;28;20031;-64
2024/01/21 03:35:51;;;;;;;17.45;11.05;;;-2.60;94.20;;;;;;5053251;28;20079;-63
2024/01/21 03:38:16;;;;;;;22.77;14.13;;;-2.50;94.40;;;;;;5053995;28;20059;-64
2024/01/21 03:40:42;;;;;;;20.05;12.38;;;-2.50;94.20;;;;;;5053856;28;20383;-62
2024/01/21 03:43:08;;;;;;;20.10;12.30;;;-2.50;94.30;;;;;;5053763;28;20070;-63
2024/01/21 03:45:34;;;;;;;19.92;12.60;;;-2.40;94.50;;;;;;5053981;28;20032;-63
2024/01/21 03:48:00;;;;;;;20.50;12.30;;;-2.50;94.50;;;;;;5053813;28;20032;-62
2024/01/21 03:50:25;;;;;;;19.95;12.32;;;-2.40;94.70;;;;;;5053616;28;20025;-65
2024/01/21 03:52:51;;;;;;;16.85;11.77;;;-2.40;94.90;;;;;;5053667;28;20025;-61
2024/01/21 03:55:17;;;;;;;19.63;11.77;;;-2.40;95.30;;;;;;5053816;28;20395;-62
2024/01/21 03:57:43;;;;;;;21.67;12.43;;;-2.40;95.40;;;;;;5053968;28;20417;-62
2024/01/21 04:00:10;;;;;;;19.48;11.43;;;-2.40;96.20;;;;;;5053733;28;20025;-63
2024/01/21 04:02:36;;;;;;;25.58;14.75;;;-2.40;96.70;;;;;;5053584;28;20031;-63
2024/01/21 04:05:03;;;;;;;18.27;11.50;;;-2.30;96.80;;;;;;5053327;28;20095;-64
2024/01/21 04:07:29;;;;;;;21.27;12.75;;;-2.40;97.40;;;;;;5053445;28;20368;-61
2024/01/21 04:09:55;;;;;;;21.90;12.73;;;-2.30;97.60;;;;;;5053526;28;20386;-62
2024/01/21 04:12:21;;;;;;;41.67;19.83;;;-2.30;96.60;;;;;;5053412;28;20028;-65
2024/01/21 04:14:46;;;;;;;23.63;14.32;;;-2.40;96.50;;;;;;5053361;28;20028;-62
2024/01/21 04:17:12;;;;;;;22.83;14.48;;;-2.50;96.70;;;;;;5053305;28;20025;-63
2024/01/21 04:19:38;;;;;;;22.17;13.45;;;-2.60;96.20;;;;;;5053007;28;20036;-62
2024/01/21 04:22:04;;;;;;;25.35;15.95;;;-2.60;96.10;;;;;;5053254;28;20100;-64
2024/01/21 04:24:30;;;;;;;23.48;14.68;;;-2.50;95.90;;;;;;5053423;28;20088;-64
2024/01/21 04:26:55;;;;;;;20.67;12.77;;;-2.50;95.90;;;;;;5053224;28;20493;-65
2024/01/21 04:29:21;;;;;;;33.33;21.45;;;-2.50;96.90;;;;;;5052824;28;20049;-62
2024/01/21 04:31:47;;;;;;;24.80;15.05;;;-2.50;96.30;;;;;;5053447;28;20036;-62
2024/01/21 04:34:13;;;;;;;20.75;13.50;;;-2.60;97.30;;;;;;5053135;28;20025;-64
2024/01/21 04:36:39;;;;;;;22.33;14.02;;;-2.60;98.30;;;;;;5053203;28;20028;-62
2024/01/21 04:39:06;;;;;;;23.17;15.07;;;-2.60;98.40;;;;;;5052980;28;20021;-64
2024/01/21 04:41:32;;;;;;;24.10;15.73;;;-2.60;98.20;;;;;;5053141;28;20033;-63
2024/01/21 04:43:58;;;;;;;32.88;19.30;;;-2.60;98.10;;;;;;5053144;28;20108;-64
2024/01/21 04:46:24;;;;;;;28.42;17.20;;;-2.50;98.40;;;;;;5055444;28;20021;-62
2024/01/21 04:48:50;;;;;;;41.30;21.88;;;-2.60;98.40;;;;;;5057090;28;20195;-64
2024/01/21 04:51:16;;;;;;;33.08;19.42;;;-2.60;99.10;;;;;;5057107;28;20021;-61
2024/01/21 04:53:42;;;;;;;42.00;23.17;;;-2.80;99.80;;;;;;5057356;28;20424;-63
2024/01/21 04:56:16;;;;;;;23.03;15.30;;;-2.90;99.90;;;;;;5057183;28;20021;-63
2024/01/21 04:58:42;;;;;;;25.48;15.48;;;-3.10;99.90;;;;;;5057100;28;20027;-60
2024/01/21 05:01:07;;;;;;;30.85;17.65;;;-3.00;99.90;;;;;;5056803;28;20390;-65
2024/01/21 05:03:33;;;;;;;37.13;18.50;;;-2.80;99.90;;;;;;5056994;28;20055;-62
2024/01/21 05:06:00;;;;;;;19.60;13.47;;;-2.80;99.90;;;;;;5056836;28;20024;-63
2024/01/21 05:08:25;;;;;;;32.40;15.25;;;-2.80;99.90;;;;;;5056760;28;20028;-62
2024/01/21 05:10:51;;;;;;;33.37;18.87;;;-2.70;99.90;;;;;;5056918;28;20025;-65
2024/01/21 05:13:17;;;;;;;21.33;11.57;;;-2.70;99.90;;;;;;5056798;28;20044;-63
2024/01/21 05:15:43;;;;;;;20.10;11.77;;;-2.70;99.90;;;;;;5056587;28;20459;-62
2024/01/21 05:18:09;;;;;;;18.53;11.97;;;-2.70;99.90;;;;;;5056586;28;20032;-61
2024/01/21 05:20:34;;;;;;;28.27;16.33;;;-2.60;99.90;;;;;;5056985;28;20029;-62
2024/01/21 05:23:00;;;;;;;34.25;16.48;;;-2.60;99.90;;;;;;5056570;28;20383;-63
2024/01/21 05:25:26;;;;;;;20.10;11.98;;;-2.70;99.90;;;;;;5056498;28;20057;-63
2024/01/21 05:27:51;;;;;;;32.27;18.10;;;-2.90;99.90;;;;;;5056453;28;20025;-62
2024/01/21 05:30:17;;;;;;;20.38;12.02;;;-2.90;99.90;;;;;;5056101;28;20459;-63
2024/01/21 05:32:46;;;;;;;23.88;13.48;;;-2.90;99.90;;;;;;5056055;28;20032;-62
2024/01/21 05:35:12;;;;;;;19.67;11.80;;;-2.80;99.90;;;;;;5056390;28;20108;-65
2024/01/21 05:37:38;;;;;;;20.97;12.33;;;-2.80;99.90;;;;;;5056339;28;20071;-63
2024/01/21 05:40:05;;;;;;;17.20;10.87;;;-2.70;99.90;;;;;;5056064;28;20025;-64
2024/01/21 05:42:30;;;;;;;18.58;10.43;;;-2.70;99.90;;;;;;5056437;28;20021;-63
2024/01/21 05:44:56;;;;;;;17.23;10.70;;;-2.60;99.90;;;;;;5056207;28;20021;-61
2024/01/21 05:47:22;;;;;;;19.50;12.43;;;-2.60;99.90;;;;;;5055815;28;20422;-61
2024/01/21 05:49:47;;;;;;;21.88;12.93;;;-2.60;99.90;;;;;;5056359;28;20036;-63
2024/01/21 05:52:13;;;;;;;20.15;12.98;;;-2.50;99.30;;;;;;5055927;28;20044;-65
2024/01/21 05:54:39;;;;;;;36.80;20.65;;;-2.60;99.70;;;;;;5055868;28;20021;-64
2024/01/21 05:57:05;;;;;;;19.10;12.52;;;-2.70;99.80;;;;;;5055196;28;20045;-63
2024/01/21 05:59:32;;;;;;;20.70;13.53;;;-2.80;99.90;;;;;;5055794;28;20024;-62
2024/01/21 08:05:34;;;;;;;72.67;38.30;;;-2.90;99.90;;;;;;5071057;28;20380;-66
2024/01/21 08:08:00;;;;;;;84.10;41.57;;;-2.40;99.80;;;;;;5070685;28;20027;-64
2024/01/21 08:10:26;;;;;;;60.00;30.73;;;-1.30;96.40;;;;;;5070448;28;20025;-62
2024/01/21 08:12:51;;;;;;;53.33;29.23;;;0.30;91.80;;;;;;5070419;28;20016;-67
2024/01/21 08:15:17;;;;;;;70.97;35.22;;;2.20;72.20;;;;;;5070538;28;20428;-62
2024/01/21 08:17:43;;;;;;;110.40;51.72;;;3.50;54.60;;;;;;5070448;28;20017;-64
2024/01/21 08:20:09;;;;;;;56.78;31.90;;;4.00;51.30;;;;;;5070294;28;20028;-61
2024/01/21 08:22:35;;;;;;;63.40;37.83;;;4.30;49.70;;;;;;5070359;28;20059;-65
2024/01/21 08:25:01;;;;;;;67.80;38.13;;;4.30;47.80;;;;;;5068902;28;20043;-63
2024/01/21 08:27:27;;;;;;;56.92;33.50;;;4.60;48.60;;;;;;5070219;28;20025;-61
2024/01/21 08:29:52;;;;;;;51.08;31.23;;;5.40;46.00;;;;;;5070324;28;20049;-65
2024/01/21 08:32:18;;;;;;;38.72;25.65;;;5.90;45.00;;;;;;5070265;28;20031;-65
2024/01/21 08:34:44;;;;;;;33.00;22.67;;;7.00;44.80;;;;;;5070007;28;20016;-64
2024/01/21 08:37:10;;;;;;;35.17;24.77;;;8.30;40.10;;;;;;5070239;28;20028;-64
2024/01/21 08:39:36;;;;;;;31.60;22.50;;;8.80;37.80;;;;;;5068610;28;20033;-62
2024/01/21 08:42:03;;;;;;;29.98;21.10;;;8.90;37.20;;;;;;5069986;28;20385;-64
2024/01/21 08:44:28;;;;;;;26.08;19.08;;;9.80;35.60;;;;;;5069894;28;20087;-65
2024/01/21 08:46:55;;;;;;;24.33;18.58;;;9.90;36.10;;;;;;5068676;28;20470;-66
2024/01/21 08:49:22;;;;;;;23.25;18.85;;;10.80;34.90;;;;;;5069760;28;20032;-65
2024/01/21 08:51:48;;;;;;;24.52;19.70;;;11.40;33.80;;;;;;5069875;28;20071;-64
2024/01/21 08:54:14;;;;;;;24.52;19.17;;;11.30;32.40;;;;;;5069709;28;20012;-64
2024/01/21 08:56:39;;;;;;;26.50;20.35;;;11.60;33.30;;;;;;5069701;28;20021;-61
2024/01/21 08:59:05;;;;;;;25.00;20.45;;;11.50;32.70;;;;;;5069562;28;20572;-64
2024/01/21 09:01:31;;;;;;;28.45;22.15;;;11.30;33.00;;;;;;5069645;28;20363;-63
2024/01/21 09:03:57;;;;;;;30.33;22.40;;;11.10;32.60;;;;;;5069464;28;20125;-64
2024/01/21 09:06:22;;;;;;;25.88;20.45;;;10.50;33.60;;;;;;5069459;28;20028;-66
2024/01/21 09:08:53;;;;;;;26.63;22.55;;;10.00;34.70;;;;;;5069295;28;20021;-66
2024/01/21 09:11:20;;;;;;;29.35;22.77;;;9.70;35.60;;;;;;5069385;28;20017;-63
2024/01/21 09:13:46;;;;;;;30.08;24.02;;;9.60;36.00;;;;;;5069243;28;20025;-63
2024/01/21 09:16:21;;;;;;;33.15;25.42;;;9.70;35.60;;;;;;5060068;28;20018;-65
2024/01/21 09:18:47;;;;;;;30.25;26.38;;;9.60;35.50;;;;;;5056100;28;20060;-64
2024/01/21 09:21:13;;;;;;;32.95;26.58;;;9.40;36.70;;;;;;5055972;28;20106;-65
2024/01/21 09:23:38;;;;;;;30.73;26.52;;;9.10;37.40;;;;;;5055843;28;20033;-66
2024/01/21 09:26:04;;;;;;;31.00;27.42;;;9.10;36.70;;;;;;5055947;28;20025;-64
2024/01/21 09:28:30;;;;;;;34.15;28.13;;;8.90;36.40;;;;;;5055806;28;20114;-66
2024/01/21 09:30:55;;;;;;;37.20;32.33;;;8.90;37.50;;;;;;5056006;28;20384;-64
2024/01/21 09:33:21;;;;;;;33.72;28.73;;;8.90;38.00;;;;;;5054509;28;20021;-63
2024/01/21 09:35:47;;;;;;;30.67;24.85;;;9.10;37.90;;;;;;5054439;28;20475;-64
2024/01/21 09:38:14;;;;;;;28.13;23.23;;;9.00;36.80;;;;;;5055559;28;20437;-63
2024/01/21 09:40:40;;;;;;;27.67;22.75;;;8.90;36.70;;;;;;5055762;28;20477;-65
2024/01/21 09:43:06;;;;;;;27.05;21.95;;;9.10;37.20;;;;;;5055552;28;20027;-63
2024/01/21 09:45:37;;;;;;;29.95;24.88;;;9.20;36.40;;;;;;5055714;28;20112;-63
2024/01/21 09:48:04;;;;;;;30.13;25.38;;;9.20;36.70;;;;;;5055676;28;20017;-63
2024/01/21 09:50:30;;;;;;;31.85;27.10;;;9.40;36.70;;;;;;5055579;28;20021;-62
2024/01/21 09:52:56;;;;;;;36.83;28.83;;;9.50;36.10;;;;;;5055449;28;20024;-63
2024/01/21 09:55:23;;;;;;;31.83;28.20;;;9.50;37.10;;;;;;5055447;28;20037;-64
2024/01/21 09:57:50;;;;;;;35.05;29.98;;;9.40;36.20;;;;;;5054091;28;20033;-66
2024/01/21 10:00:17;;;;;;;35.40;30.33;;;9.60;36.20;;;;;;5055472;28;20382;-65
2024/01/21 10:02:44;;;;;;;54.13;41.95;;;9.70;36.30;;;;;;5055302;28;20021;-65
2024/01/21 10:05:10;;;;;;;47.83;38.60;;;9.80;35.40;;;;;;5054938;28;20132;-66
2024/01/21 10:07:37;;;;;;;49.47;39.80;;;9.50;36.90;;;;;;5055195;28;20142;-66
2024/01/21 10:10:04;;;;;;;46.67;38.33;;;9.10;38.80;;;;;;5055265;28;20425;-67
2024/01/21 10:12:32;;;;;;;43.30;35.47;;;8.90;38.10;;;;;;5055051;28;20017;-64
2024/01/21 10:14:58;;;;;;;40.35;31.67;;;8.60;39.70;;;;;;5055195;28;20104;-62
2024/01/21 10:17:24;;;;;;;40.28;31.58;;;8.50;39.50;;;;;;5055057;28;20124;-63
2024/01/21 10:19:53;;;;;;;37.45;30.45;;;8.70;39.30;;;;;;5055184;28;20445;-65
2024/01/21 10:22:21;;;;;;;35.63;28.70;;;8.80;39.20;;;;;;5054707;28;20036;-63
2024/01/21 10:24:50;;;;;;;34.00;28.27;;;8.80;38.80;;;;;;5053642;28;20033;-63
2024/01/21 10:27:16;;;;;;;37.88;30.15;;;8.90;38.20;;;;;;5053798;28;20071;-63
2024/01/21 10:29:44;;;;;;;35.42;29.73;;;9.10;38.70;;;;;;5054857;28;20021;-67
2024/01/21 10:32:11;;;;;;;37.25;30.58;;;9.20;38.00;;;;;;5054893;28;20043;-65
2024/01/21 10:34:41;;;;;;;44.72;36.97;;;9.30;38.20;;;;;;5054695;28;20028;-63
2024/01/21 10:37:07;;;;;;;46.15;37.17;;;9.20;37.60;;;;;;5054545;28;20021;-65
2024/01/21 10:39:35;;;;;;;44.78;36.03;;;9.00;37.30;;;;;;5054780;28;20028;-64
2024/01/21 10:42:02;;;;;;;37.08;31.50;;;8.60;38.70;;;;;;5054613;28;20048;-64
2024/01/21 10:44:28;;;;;;;34.10;30.48;;;9.00;38.50;;;;;;5054564;28;20037;-65
2024/01/21 10:46:55;;;;;;;34.17;29.98;;;9.40;37.80;;;;;;5053278;28;20021;-64
2024/01/21 10:49:21;;;;;;;38.63;31.80;;;9.60;37.20;;;;;;5053145;28;20021;-67
2024/01/21 10:51:50;;;;;;;35.47;30.00;;;9.90;36.70;;;;;;5054240;28;20017;-64
2024/01/21 10:54:16;;;;;;;34.83;28.58;;;9.70;37.40;;;;;;5054219;28;20025;-67
2024/01/21 10:56:43;;;;;;;34.28;29.15;;;9.30;37.20;;;;;;5054306;28;20387;-64
2024/01/21 10:59:13;;;;;;;32.25;27.58;;;9.40;38.30;;;;;;5054265;28;20044;-64
2024/01/21 11:01:42;;;;;;;30.73;26.73;;;9.60;40.20;;;;;;5054348;28;20021;-66
2024/01/21 11:04:12;;;;;;;31.90;27.45;;;9.70;37.60;;;;;;5053772;28;20056;-64
2024/01/21 11:06:44;;;;;;;32.15;28.27;;;10.00;36.90;;;;;;5053957;28;20425;-65
2024/01/21 11:09:10;;;;;;;44.47;34.33;;;10.10;36.40;;;;;;5054057;28;20092;-64
2024/01/21 11:11:56;;;;;;;35.72;31.17;;;9.90;37.10;;;;;;5054042;28;20029;-66
2024/01/21 11:14:34;;;;;;;34.67;29.45;;;10.00;36.80;;;;;;5053862;28;20080;-63
2024/01/21 11:17:10;;;;;;;33.65;28.60;;;10.10;36.90;;;;;;5053996;28;20029;-66
2024/01/21 11:19:55;;;;;;;32.60;27.67;;;10.30;36.80;;;;;;5053837;28;20120;-66
2024/01/21 11:22:25;;;;;;;33.90;27.73;;;10.50;36.50;;;;;;5053915;28;20052;-66
2024/01/21 11:24:53;;;;;;;33.53;27.13;;;10.50;35.90;;;;;;5053938;28;20471;-67
2024/01/21 11:27:26;;;;;;;36.88;30.15;;;10.50;36.50;;;;;;5053752;28;20417;-64
2024/01/21 11:29:56;;;;;;;33.28;27.92;;;10.70;36.80;;;;;;5053994;28;20021;-63
2024/01/21 11:32:26;;;;;;;30.70;26.55;;;10.70;36.30;;;;;;5052519;28;20094;-66
2024/01/21 11:34:53;;;;;;;28.15;25.13;;;10.70;36.00;;;;;;5053521;28;20025;-62
2024/01/21 11:37:19;;;;;;;28.63;24.95;;;10.60;36.50;;;;;;5053665;28;20021;-62
2024/01/21 11:39:46;;;;;;;31.90;26.77;;;10.50;36.50;;;;;;5053721;28;20100;-65
2024/01/21 11:42:12;;;;;;;27.15;24.10;;;10.50;36.50;;;;;;5053533;28;20021;-64
2024/01/21 11:44:39;;;;;;;31.08;26.67;;;10.30;37.10;;;;;;5053574;28;20028;-63
2024/01/21 11:47:06;;;;;;;27.35;23.25;;;10.30;36.70;;;;;;5053538;28;20382;-64
2024/01/21 11:49:34;;;;;;;26.58;23.67;;;10.50;36.30;;;;;;5053249;28;20429;-63
2024/01/21 11:52:05;;;;;;;29.05;24.73;;;10.70;35.70;;;;;;5053444;28;20025;-65
2024/01/21 11:54:36;;;;;;;24.92;22.33;;;10.80;34.80;;;;;;5053349;28;20040;-66
2024/01/21 11:57:02;;;;;;;25.15;22.45;;;10.70;35.80;;;;;;5052253;28;20033;-64
2024/01/21 11:59:30;;;;;;;24.17;20.33;;;10.90;36.50;;;;;;5053385;28;20014;-63
2024/01/21 12:01:57;;;;;;;23.08;20.58;;;10.80;35.60;;;;;;5053201;28;20021;-62
2024/01/21 12:04:24;;;;;;;23.38;19.45;;;10.50;36.00;;;;;;5052876;28;20554;-65
2024/01/21 12:06:52;;;;;;;19.33;17.05;;;10.50;36.60;;;;;;5053285;28;20021;-64
2024/01/21 12:09:19;;;;;;;23.25;19.13;;;10.70;35.50;;;;;;5053158;28;20021;-63
2024/01/21 12:11:47;;;;;;;20.67;18.45;;;10.90;34.90;;;;;;5053291;28;20059;-63
2024/01/21 12:14:13;;;;;;;20.60;18.13;;;10.40;36.50;;;;;;5051949;28;20029;-67
2024/01/21 12:16:39;;;;;;;19.88;17.80;;;10.20;37.00;;;;;;5053057;28;20021;-64
2024/01/21 12:19:06;;;;;;;19.33;17.23;;;10.40;37.80;;;;;;5052927;28;20032;-67
2024/01/21 12:21:32;;;;;;;19.70;17.60;;;10.70;36.40;;;;;;5053163;28;20028;-66
2024/01/21 12:23:59;;;;;;;19.75;17.00;;;10.90;35.90;;;;;;5051950;28;20040;-66
2024/01/21 12:26:26;;;;;;;20.65;17.33;;;11.00;35.80;;;;;;5053007;28;20041;-66
2024/01/21 12:28:57;;;;;;;21.75;19.23;;;11.00;36.40;;;;;;5053107;28;20029;-66
2024/01/21 12:31:27;;;;;;;24.70;20.13;;;11.10;35.90;;;;;;5052935;28;20017;-65
2024/01/21 12:33:53;;;;;;;27.58;23.17;;;11.00;36.20;;;;;;5052844;28;20029;-64
2024/01/21 12:36:19;;;;;;;25.85;22.95;;;11.10;35.90;;;;;;5051673;28;20024;-67
2024/01/21 12:38:45;;;;;;;31.23;26.27;;;11.00;35.70;;;;;;5052812;28;20071;-65
2024/01/21 12:41:11;;;;;;;28.98;24.30;;;11.20;37.00;;;;;;5052841;28;20039;-67
2024/01/21 12:43:36;;;;;;;31.05;27.58;;;11.10;36.40;;;;;;5052870;28;20422;-64
2024/01/21 12:46:03;;;;;;;30.92;27.52;;;10.90;36.60;;;;;;5052584;28;20013;-63
2024/01/21 12:48:29;;;;;;;31.52;26.35;;;10.90;36.80;;;;;;5052802;28;20482;-62
2024/01/21 12:50:55;;;;;;;28.40;25.40;;;11.00;36.10;;;;;;5054180;28;20475;-67
2024/01/21 12:53:21;;;;;;;25.88;22.73;;;10.80;38.10;;;;;;5056591;28;20021;-65
2024/01/21 12:55:46;;;;;;;24.65;21.92;;;10.80;36.90;;;;;;5056400;28;20374;-67
2024/01/21 12:58:12;;;;;;;30.13;26.50;;;10.90;38.00;;;;;;5056466;28;20017;-62
2024/01/21 13:00:41;;;;;;;29.20;26.10;;;10.80;37.10;;;;;;5056253;28;20021;-62
2024/01/21 13:03:07;;;;;;;29.17;26.08;;;10.70;37.00;;;;;;5054774;28;20398;-64
2024/01/21 13:05:33;;;;;;;29.45;26.27;;;10.80;37.60;;;;;;5056494;28;20025;-67
2024/01/21 13:08:00;;;;;;;30.52;27.05;;;10.70;37.40;;;;;;5056301;28;20052;-67
2024/01/21 13:10:26;;;;;;;31.27;26.98;;;10.80;37.90;;;;;;5054949;28;20021;-65
2024/01/21 13:12:52;;;;;;;27.85;25.08;;;10.90;37.80;;;;;;5056210;28;20039;-66
2024/01/21 13:15:17;;;;;;;33.25;27.80;;;10.90;38.10;;;;;;5055980;28;20067;-65
2024/01/21 13:17:43;;;;;;;31.95;28.58;;;10.80;39.00;;;;;;5056040;28;20023;-64
2024/01/21 13:20:09;;;;;;;32.83;29.35;;;11.00;39.50;;;;;;5056106;28;20029;-68
2024/01/21 13:22:35;;;;;;;33.35;29.70;;;11.00;39.40;;;;;;5056094;28;20025;-66
2024/01/21 13:25:02;;;;;;;45.35;36.95;;;11.10;39.00;;;;;;5056042;28;20492;-64
2024/01/21 13:27:37;;;;;;;43.85;38.33;;;11.00;39.50;;;;;;5055919;28;20028;-64
2024/01/21 13:32:48;;;;;;;61.42;51.42;;;10.30;40.10;;;;;;5055879;28;20059;-65
2024/01/21 13:35:14;;;;;;;57.88;48.00;;;10.30;40.10;;;;;;5055723;28;20029;-65
2024/01/21 13:37:40;;;;;;;51.92;44.13;;;10.00;40.50;;;;;;5055778;28;20052;-62
2024/01/21 13:40:06;;;;;;;69.03;52.67;;;9.40;41.60;;;;;;5055592;28;20025;-67
2024/01/21 13:42:32;;;;;;;65.45;51.47;;;9.20;42.20;;;;;;5055875;28;20017;-62
2024/01/21 13:44:58;;;;;;;66.68;50.92;;;8.80;43.70;;;;;;5055614;28;20051;-64
2024/01/21 13:47:24;;;;;;;107.10;73.57;;;8.50;44.40;;;;;;5055570;28;20025;-62
2024/01/21 13:49:49;;;;;;;110.78;76.70;;;8.30;45.20;;;;;;5055541;28;20486;-67
2024/01/21 13:52:16;;;;;;;105.85;74.70;;;8.00;45.90;;;;;;5054261;28;20032;-64
2024/01/21 13:54:42;;;;;;;144.00;103.10;;;7.90;46.90;;;;;;5055292;28;20035;-62
2024/01/21 13:57:08;;;;;;;136.20;100.60;;;7.80;46.80;;;;;;5055473;28;20518;-66
2024/01/21 13:59:33;;;;;;;126.93;98.38;;;7.60;46.90;;;;;;5055230;28;20052;-65
2024/01/21 14:02:00;;;;;;;135.10;102.00;;;7.80;48.10;;;;;;5055178;28;20052;-65
2024/01/21 14:04:26;;;;;;;135.77;104.18;;;7.70;46.90;;;;;;5055038;28;20124;-65
2024/01/21 14:06:51;;;;;;;145.70;111.35;;;7.60;47.40;;;;;;5055241;28;20025;-66
2024/01/21 14:09:17;;;;;;;172.65;122.45;;;7.30;48.10;;;;;;5055152;28;20071;-64
2024/01/21 14:11:44;;;;;;;230.00;160.55;;;7.30;48.10;;;;;;5055125;28;20075;-63
2024/01/21 14:14:10;;;;;;;163.55;125.15;;;7.00;48.90;;;;;;5054932;28;20036;-64
2024/01/21 14:16:36;;;;;;;113.38;91.32;;;7.10;49.10;;;;;;5055048;28;20104;-67
2024/01/21 14:19:02;;;;;;;92.88;74.75;;;7.60;47.50;;;;;;5054973;28;20467;-63
2024/01/21 14:21:28;;;;;;;75.97;59.67;;;7.90;46.10;;;;;;5055062;28;20021;-63
2024/01/21 14:23:54;;;;;;;104.88;89.00;;;8.40;45.00;;;;;;5055044;28;20036;-65
2024/01/21 14:26:25;;;;;;;93.40;76.85;;;8.40;45.40;;;;;;5054780;28;20029;-63
2024/01/21 14:28:53;;;;;;;66.30;57.40;;;8.00;46.30;;;;;;5054823;28;20173;-64
2024/01/21 14:31:19;;;;;;;60.55;51.92;;;7.90;45.30;;;;;;5054722;28;20360;-65